sensor_id;sensor_type;location;lat;lon;timestamp;temperature;humidity
52979;DHT22;63430;53.186;6.598;2022-11-02T00:01:16;12.90;99.90
52979;DHT22;63430;53.186;6.598;2022-11-02T00:03:20;12.90;99.90
52979;DHT22;63430;53.186;6.598;2022-11-02T00:05:22;12.90;99.90
52979;DHT22;63430;53.186;6.598;2022-11-02T00:07:25;12.90;99.90
52979;DHT22;63430;53.186;6.598;2022-11-02T00:09:28;12.80;99.90
52979;DHT22;63430;53.186;6.598;2022-11-02T00:11:32;12.80;99.90
52979;DHT22;63430;53.186;6.598;2022-11-02T00:13:35;12.80;99.90
52979;DHT22;63430;53.186;6.598;2022-11-02T00:15:40;12.70;99.90
52979;DHT22;63430;53.186;6.598;2022-11-02T00:17:46;12.70;99.90
52979;DHT22;63430;53.186;6.598;2022-11-02T00:19:52;12.70;99.90
52979;DHT22;63430;53.186;6.598;2022-11-02T00:21:54;12.70;99.90
52979;DHT22;63430;53.186;6.598;2022-11-02T00:23:58;12.60;99.90
52979;DHT22;63430;53.186;6.598;2022-11-02T00:26:01;12.50;99.90
52979;DHT22;63430;53.186;6.598;2022-11-02T00:28:07;12.50;99.90
52979;DHT22;63430;53.186;6.598;2022-11-02T00:30:12;12.40;99.90
52979;DHT22;63430;53.186;6.598;2022-11-02T00:32:14;12.40;99.90
52979;DHT22;63430;53.186;6.598;2022-11-02T00:34:16;12.30;99.90
52979;DHT22;63430;53.186;6.598;2022-11-02T00:36:21;12.20;99.90
52979;DHT22;63430;53.186;6.598;2022-11-02T00:38:26;12.10;99.90
52979;DHT22;63430;53.186;6.598;2022-11-02T00:40:28;12.00;99.90
52979;DHT22;63430;53.186;6.598;2022-11-02T00:42:30;11.90;99.90
52979;DHT22;63430;53.186;6.598;2022-11-02T00:44:35;11.90;99.90
52979;DHT22;63430;53.186;6.598;2022-11-02T00:46:37;11.80;99.90
52979;DHT22;63430;53.186;6.598;2022-11-02T00:48:39;11.70;99.90
52979;DHT22;63430;53.186;6.598;2022-11-02T00:50:42;11.70;99.90
52979;DHT22;63430;53.186;6.598;2022-11-02T00:52:45;11.70;99.90
52979;DHT22;63430;53.186;6.598;2022-11-02T00:54:47;11.60;99.90
52979;DHT22;63430;53.186;6.598;2022-11-02T00:56:49;11.70;99.90
52979;DHT22;63430;53.186;6.598;2022-11-02T00:58:51;11.60;99.90
52979;DHT22;63430;53.186;6.598;2022-11-02T01:00:56;11.60;99.90
52979;DHT22;63430;53.186;6.598;2022-11-02T01:02:59;11.60;99.90
52979;DHT22;63430;53.186;6.598;2022-11-02T01:05:06;11.50;99.90
52979;DHT22;63430;53.186;6.598;2022-11-02T01:07:08;11.50;99.90
52979;DHT22;63430;53.186;6.598;2022-11-02T01:09:12;11.70;99.90
52979;DHT22;63430;53.186;6.598;2022-11-02T01:11:20;11.50;99.90
52979;DHT22;63430;53.186;6.598;2022-11-02T01:13:23;11.40;99.90
52979;DHT22;63430;53.186;6.598;2022-11-02T01:15:25;11.40;99.90
52979;DHT22;63430;53.186;6.598;2022-11-02T01:17:30;11.40;99.90
52979;DHT22;63430;53.186;6.598;2022-11-02T01:19:32;11.40;99.90
52979;DHT22;63430;53.186;6.598;2022-11-02T01:21:37;11.30;99.90
52979;DHT22;63430;53.186;6.598;2022-11-02T01:23:40;11.30;99.90
52979;DHT22;63430;53.186;6.598;2022-11-02T01:25:44;11.60;99.90
52979;DHT22;63430;53.186;6.598;2022-11-02T01:27:46;11.30;99.90
52979;DHT22;63430;53.186;6.598;2022-11-02T01:29:48;11.20;99.90
52979;DHT22;63430;53.186;6.598;2022-11-02T01:31:50;11.20;99.90
52979;DHT22;63430;53.186;6.598;2022-11-02T01:33:57;11.20;99.90
52979;DHT22;63430;53.186;6.598;2022-11-02T01:36:02;11.10;99.90
52979;DHT22;63430;53.186;6.598;2022-11-02T01:38:05;11.10;99.90
52979;DHT22;63430;53.186;6.598;2022-11-02T01:40:08;11.10;99.90
52979;DHT22;63430;53.186;6.598;2022-11-02T01:42:18;11.00;99.90
52979;DHT22;63430;53.186;6.598;2022-11-02T01:44:32;11.00;99.90
52979;DHT22;63430;53.186;6.598;2022-11-02T01:46:37;11.00;99.90
52979;DHT22;63430;53.186;6.598;2022-11-02T01:48:43;11.00;99.90
52979;DHT22;63430;53.186;6.598;2022-11-02T01:50:49;11.00;99.90
52979;DHT22;63430;53.186;6.598;2022-11-02T01:52:56;11.00;99.90
52979;DHT22;63430;53.186;6.598;2022-11-02T01:55:03;10.90;99.90
52979;DHT22;63430;53.186;6.598;2022-11-02T01:57:09;11.00;99.90
52979;DHT22;63430;53.186;6.598;2022-11-02T01:59:18;11.00;99.90
52979;DHT22;63430;53.186;6.598;2022-11-02T02:01:23;11.00;99.90
52979;DHT22;63430;53.186;6.598;2022-11-02T02:03:27;11.00;99.90
52979;DHT22;63430;53.186;6.598;2022-11-02T02:05:32;11.00;99.90
52979;DHT22;63430;53.186;6.598;2022-11-02T02:07:38;11.00;99.90
52979;DHT22;63430;53.186;6.598;2022-11-02T02:09:42;11.00;99.90
52979;DHT22;63430;53.186;6.598;2022-11-02T02:11:52;11.10;99.90
52979;DHT22;63430;53.186;6.598;2022-11-02T02:13:57;11.00;99.90
52979;DHT22;63430;53.186;6.598;2022-11-02T02:16:04;11.00;99.90
52979;DHT22;63430;53.186;6.598;2022-11-02T02:18:11;11.00;99.90
52979;DHT22;63430;53.186;6.598;2022-11-02T02:20:30;11.10;99.90
52979;DHT22;63430;53.186;6.598;2022-11-02T02:22:59;11.00;99.90
52979;DHT22;63430;53.186;6.598;2022-11-02T02:25:20;11.00;99.90
52979;DHT22;63430;53.186;6.598;2022-11-02T02:27:29;11.10;99.90
52979;DHT22;63430;53.186;6.598;2022-11-02T02:29:46;11.10;99.90
52979;DHT22;63430;53.186;6.598;2022-11-02T02:31:54;11.00;99.90
52979;DHT22;63430;53.186;6.598;2022-11-02T02:34:05;11.70;99.90
52979;DHT22;63430;53.186;6.598;2022-11-02T02:36:17;11.10;99.90
52979;DHT22;63430;53.186;6.598;2022-11-02T02:38:26;11.00;99.90
52979;DHT22;63430;53.186;6.598;2022-11-02T02:40:33;11.10;99.90
52979;DHT22;63430;53.186;6.598;2022-11-02T02:42:41;11.20;99.90
52979;DHT22;63430;53.186;6.598;2022-11-02T02:44:52;11.20;99.90
52979;DHT22;63430;53.186;6.598;2022-11-02T02:46:59;11.10;99.90
52979;DHT22;63430;53.186;6.598;2022-11-02T02:49:04;11.20;99.90
52979;DHT22;63430;53.186;6.598;2022-11-02T02:51:11;11.20;99.90
52979;DHT22;63430;53.186;6.598;2022-11-02T02:53:21;11.20;99.90
52979;DHT22;63430;53.186;6.598;2022-11-02T02:55:28;11.20;99.90
52979;DHT22;63430;53.186;6.598;2022-11-02T02:57:34;11.30;99.90
52979;DHT22;63430;53.186;6.598;2022-11-02T02:59:38;11.30;99.90
52979;DHT22;63430;53.186;6.598;2022-11-02T03:01:44;11.30;99.90
52979;DHT22;63430;53.186;6.598;2022-11-02T03:03:47;11.40;99.90
52979;DHT22;63430;53.186;6.598;2022-11-02T03:06:02;11.40;99.90
52979;DHT22;63430;53.186;6.598;2022-11-02T03:08:11;11.40;99.90
52979;DHT22;63430;53.186;6.598;2022-11-02T03:10:19;11.40;99.90
52979;DHT22;63430;53.186;6.598;2022-11-02T03:12:28;11.40;99.90
52979;DHT22;63430;53.186;6.598;2022-11-02T03:14:41;11.40;99.90
52979;DHT22;63430;53.186;6.598;2022-11-02T03:17:02;11.40;99.90
52979;DHT22;63430;53.186;6.598;2022-11-02T03:19:12;11.40;99.90
52979;DHT22;63430;53.186;6.598;2022-11-02T03:21:23;11.40;99.90
52979;DHT22;63430;53.186;6.598;2022-11-02T03:23:31;11.30;99.90
52979;DHT22;63430;53.186;6.598;2022-11-02T03:25:52;11.30;99.90
52979;DHT22;63430;53.186;6.598;2022-11-02T03:28:00;11.30;99.90
52979;DHT22;63430;53.186;6.598;2022-11-02T03:30:10;11.20;99.90
52979;DHT22;63430;53.186;6.598;2022-11-02T03:32:19;11.20;99.90
52979;DHT22;63430;53.186;6.598;2022-11-02T03:34:27;11.20;99.90
52979;DHT22;63430;53.186;6.598;2022-11-02T03:36:35;11.20;99.90
52979;DHT22;63430;53.186;6.598;2022-11-02T03:38:42;11.20;99.90
52979;DHT22;63430;53.186;6.598;2022-11-02T03:40:47;11.20;99.90
52979;DHT22;63430;53.186;6.598;2022-11-02T03:42:51;11.20;99.90
52979;DHT22;63430;53.186;6.598;2022-11-02T03:45:00;11.10;99.90
52979;DHT22;63430;53.186;6.598;2022-11-02T03:47:07;11.20;99.90
52979;DHT22;63430;53.186;6.598;2022-11-02T03:49:17;11.10;99.90
52979;DHT22;63430;53.186;6.598;2022-11-02T03:51:21;11.10;99.90
52979;DHT22;63430;53.186;6.598;2022-11-02T03:53:30;11.10;99.90
52979;DHT22;63430;53.186;6.598;2022-11-02T03:55:36;11.10;99.90
52979;DHT22;63430;53.186;6.598;2022-11-02T03:57:43;11.20;99.90
52979;DHT22;63430;53.186;6.598;2022-11-02T03:59:46;11.00;99.90
52979;DHT22;63430;53.186;6.598;2022-11-02T04:01:50;11.50;99.90
52979;DHT22;63430;53.186;6.598;2022-11-02T04:03:53;11.00;99.90
52979;DHT22;63430;53.186;6.598;2022-11-02T04:05:57;11.00;99.90
52979;DHT22;63430;53.186;6.598;2022-11-02T04:08:00;11.00;99.90
52979;DHT22;63430;53.186;6.598;2022-11-02T04:10:24;10.90;99.90
52979;DHT22;63430;53.186;6.598;2022-11-02T04:12:26;11.40;99.90
52979;DHT22;63430;53.186;6.598;2022-11-02T04:14:47;10.90;99.90
52979;DHT22;63430;53.186;6.598;2022-11-02T04:16:50;10.90;99.90
52979;DHT22;63430;53.186;6.598;2022-11-02T04:19:12;10.90;99.90
52979;DHT22;63430;53.186;6.598;2022-11-02T04:21:32;10.90;99.90
52979;DHT22;63430;53.186;6.598;2022-11-02T04:23:37;10.90;99.90
52979;DHT22;63430;53.186;6.598;2022-11-02T04:25:58;10.90;99.90
52979;DHT22;63430;53.186;6.598;2022-11-02T04:28:06;11.00;99.90
52979;DHT22;63430;53.186;6.598;2022-11-02T04:30:10;11.10;99.90
52979;DHT22;63430;53.186;6.598;2022-11-02T04:32:12;11.00;99.90
52979;DHT22;63430;53.186;6.598;2022-11-02T04:34:14;11.40;99.90
52979;DHT22;63430;53.186;6.598;2022-11-02T04:36:16;11.10;99.90
52979;DHT22;63430;53.186;6.598;2022-11-02T04:38:21;11.10;99.90
52979;DHT22;63430;53.186;6.598;2022-11-02T04:40:42;11.10;99.90
52979;DHT22;63430;53.186;6.598;2022-11-02T04:42:52;11.10;99.90
52979;DHT22;63430;53.186;6.598;2022-11-02T04:44:54;11.10;99.90
52979;DHT22;63430;53.186;6.598;2022-11-02T04:46:56;11.10;99.90
52979;DHT22;63430;53.186;6.598;2022-11-02T04:48:58;11.10;99.90
52979;DHT22;63430;53.186;6.598;2022-11-02T04:51:01;11.00;99.90
52979;DHT22;63430;53.186;6.598;2022-11-02T04:53:04;10.50;99.90
52979;DHT22;63430;53.186;6.598;2022-11-02T04:55:11;11.00;99.90
52979;DHT22;63430;53.186;6.598;2022-11-02T04:57:13;11.00;99.90
52979;DHT22;63430;53.186;6.598;2022-11-02T04:59:16;10.90;99.90
52979;DHT22;63430;53.186;6.598;2022-11-02T05:01:18;10.90;99.90
52979;DHT22;63430;53.186;6.598;2022-11-02T05:03:21;10.90;99.90
52979;DHT22;63430;53.186;6.598;2022-11-02T05:05:23;11.20;99.90
52979;DHT22;63430;53.186;6.598;2022-11-02T05:07:28;11.00;99.90
52979;DHT22;63430;53.186;6.598;2022-11-02T05:09:30;10.90;99.90
52979;DHT22;63430;53.186;6.598;2022-11-02T05:11:35;10.90;99.90
52979;DHT22;63430;53.186;6.598;2022-11-02T05:13:38;10.80;99.90
52979;DHT22;63430;53.186;6.598;2022-11-02T05:15:41;10.80;99.90
52979;DHT22;63430;53.186;6.598;2022-11-02T05:17:47;10.80;99.90
52979;DHT22;63430;53.186;6.598;2022-11-02T05:19:49;10.80;99.90
52979;DHT22;63430;53.186;6.598;2022-11-02T05:21:51;10.80;99.90
52979;DHT22;63430;53.186;6.598;2022-11-02T05:23:53;11.20;99.90
52979;DHT22;63430;53.186;6.598;2022-11-02T05:25:57;11.00;99.90
52979;DHT22;63430;53.186;6.598;2022-11-02T05:28:03;10.80;99.90
52979;DHT22;63430;53.186;6.598;2022-11-02T05:30:06;10.90;99.90
52979;DHT22;63430;53.186;6.598;2022-11-02T05:32:08;10.80;99.90
52979;DHT22;63430;53.186;6.598;2022-11-02T05:34:13;10.80;99.90
52979;DHT22;63430;53.186;6.598;2022-11-02T05:36:15;10.80;99.90
52979;DHT22;63430;53.186;6.598;2022-11-02T05:38:17;10.80;99.90
52979;DHT22;63430;53.186;6.598;2022-11-02T05:40:20;10.80;99.90
52979;DHT22;63430;53.186;6.598;2022-11-02T05:42:22;10.80;99.90
52979;DHT22;63430;53.186;6.598;2022-11-02T05:44:27;10.80;99.90
52979;DHT22;63430;53.186;6.598;2022-11-02T05:46:29;10.80;99.90
52979;DHT22;63430;53.186;6.598;2022-11-02T05:48:32;10.80;99.90
52979;DHT22;63430;53.186;6.598;2022-11-02T05:50:34;11.00;99.90
52979;DHT22;63430;53.186;6.598;2022-11-02T05:52:37;10.80;99.90
52979;DHT22;63430;53.186;6.598;2022-11-02T05:54:39;10.80;99.90
52979;DHT22;63430;53.186;6.598;2022-11-02T05:56:42;10.80;99.90
52979;DHT22;63430;53.186;6.598;2022-11-02T05:58:45;10.80;99.90
52979;DHT22;63430;53.186;6.598;2022-11-02T06:00:50;10.80;99.90
52979;DHT22;63430;53.186;6.598;2022-11-02T06:02:56;10.90;99.90
52979;DHT22;63430;53.186;6.598;2022-11-02T06:04:58;10.80;99.90
52979;DHT22;63430;53.186;6.598;2022-11-02T06:07:01;10.90;99.90
52979;DHT22;63430;53.186;6.598;2022-11-02T06:09:03;10.80;99.90
52979;DHT22;63430;53.186;6.598;2022-11-02T06:11:10;10.80;99.90
52979;DHT22;63430;53.186;6.598;2022-11-02T06:13:15;10.80;99.90
52979;DHT22;63430;53.186;6.598;2022-11-02T06:15:17;10.80;99.90
52979;DHT22;63430;53.186;6.598;2022-11-02T06:17:22;10.80;99.90
52979;DHT22;63430;53.186;6.598;2022-11-02T06:19:24;10.80;99.90
52979;DHT22;63430;53.186;6.598;2022-11-02T06:21:26;10.80;99.90
52979;DHT22;63430;53.186;6.598;2022-11-02T06:23:29;10.80;99.90
52979;DHT22;63430;53.186;6.598;2022-11-02T06:25:31;10.80;99.90
52979;DHT22;63430;53.186;6.598;2022-11-02T06:27:34;10.80;99.90
52979;DHT22;63430;53.186;6.598;2022-11-02T06:29:37;10.90;99.90
52979;DHT22;63430;53.186;6.598;2022-11-02T06:31:42;10.90;99.90
52979;DHT22;63430;53.186;6.598;2022-11-02T06:33:50;10.90;99.90
52979;DHT22;63430;53.186;6.598;2022-11-02T06:35:53;10.90;99.90
52979;DHT22;63430;53.186;6.598;2022-11-02T06:37:56;10.90;99.90
52979;DHT22;63430;53.186;6.598;2022-11-02T06:39:58;10.90;99.90
52979;DHT22;63430;53.186;6.598;2022-11-02T06:42:00;10.90;99.90
52979;DHT22;63430;53.186;6.598;2022-11-02T06:44:03;10.90;99.90
52979;DHT22;63430;53.186;6.598;2022-11-02T06:46:05;10.90;99.90
52979;DHT22;63430;53.186;6.598;2022-11-02T06:48:10;10.90;99.90
52979;DHT22;63430;53.186;6.598;2022-11-02T06:50:15;10.90;99.90
52979;DHT22;63430;53.186;6.598;2022-11-02T06:52:18;10.90;99.90
52979;DHT22;63430;53.186;6.598;2022-11-02T06:54:20;10.90;99.90
52979;DHT22;63430;53.186;6.598;2022-11-02T06:56:22;10.80;99.90
52979;DHT22;63430;53.186;6.598;2022-11-02T06:58:26;10.80;99.90
52979;DHT22;63430;53.186;6.598;2022-11-02T07:00:31;10.80;99.90
52979;DHT22;63430;53.186;6.598;2022-11-02T07:02:34;10.80;99.90
52979;DHT22;63430;53.186;6.598;2022-11-02T07:04:40;10.80;99.90
52979;DHT22;63430;53.186;6.598;2022-11-02T07:06:44;10.80;99.90
52979;DHT22;63430;53.186;6.598;2022-11-02T07:08:47;10.80;99.90
52979;DHT22;63430;53.186;6.598;2022-11-02T07:10:49;10.80;99.90
52979;DHT22;63430;53.186;6.598;2022-11-02T07:12:52;10.80;99.90
52979;DHT22;63430;53.186;6.598;2022-11-02T07:14:55;11.20;99.90
52979;DHT22;63430;53.186;6.598;2022-11-02T07:16:57;10.90;99.90
52979;DHT22;63430;53.186;6.598;2022-11-02T07:19:00;11.00;99.90
52979;DHT22;63430;53.186;6.598;2022-11-02T07:21:02;11.00;99.90
52979;DHT22;63430;53.186;6.598;2022-11-02T07:23:08;11.00;99.90
52979;DHT22;63430;53.186;6.598;2022-11-02T07:25:11;11.00;99.90
52979;DHT22;63430;53.186;6.598;2022-11-02T07:27:15;11.50;99.90
52979;DHT22;63430;53.186;6.598;2022-11-02T07:29:18;11.00;99.90
52979;DHT22;63430;53.186;6.598;2022-11-02T07:31:20;11.00;99.90
52979;DHT22;63430;53.186;6.598;2022-11-02T07:33:22;11.00;99.90
52979;DHT22;63430;53.186;6.598;2022-11-02T07:35:25;11.00;99.90
52979;DHT22;63430;53.186;6.598;2022-11-02T07:37:27;11.00;99.90
52979;DHT22;63430;53.186;6.598;2022-11-02T07:39:35;11.00;99.90
52979;DHT22;63430;53.186;6.598;2022-11-02T07:41:37;11.00;99.90
52979;DHT22;63430;53.186;6.598;2022-11-02T07:43:39;11.00;99.90
52979;DHT22;63430;53.186;6.598;2022-11-02T07:45:48;11.00;99.90
52979;DHT22;63430;53.186;6.598;2022-11-02T07:47:52;10.90;99.90
52979;DHT22;63430;53.186;6.598;2022-11-02T07:49:57;10.90;99.90
52979;DHT22;63430;53.186;6.598;2022-11-02T07:52:00;10.90;99.90
52979;DHT22;63430;53.186;6.598;2022-11-02T07:54:02;11.00;99.90
52979;DHT22;63430;53.186;6.598;2022-11-02T07:56:07;10.90;99.90
52979;DHT22;63430;53.186;6.598;2022-11-02T07:58:10;10.90;99.90
52979;DHT22;63430;53.186;6.598;2022-11-02T08:00:17;10.90;99.90
52979;DHT22;63430;53.186;6.598;2022-11-02T08:02:19;10.80;99.90
52979;DHT22;63430;53.186;6.598;2022-11-02T08:04:22;10.80;99.90
52979;DHT22;63430;53.186;6.598;2022-11-02T08:06:27;10.80;99.90
52979;DHT22;63430;53.186;6.598;2022-11-02T08:08:29;10.80;99.90
52979;DHT22;63430;53.186;6.598;2022-11-02T08:10:36;10.90;99.90
52979;DHT22;63430;53.186;6.598;2022-11-02T08:12:44;10.90;99.90
52979;DHT22;63430;53.186;6.598;2022-11-02T08:14:46;10.90;99.90
52979;DHT22;63430;53.186;6.598;2022-11-02T08:16:50;10.90;99.90
52979;DHT22;63430;53.186;6.598;2022-11-02T08:18:52;11.00;99.90
52979;DHT22;63430;53.186;6.598;2022-11-02T08:20:56;11.00;99.90
52979;DHT22;63430;53.186;6.598;2022-11-02T08:23:01;11.10;99.90
52979;DHT22;63430;53.186;6.598;2022-11-02T08:25:04;11.60;99.90
52979;DHT22;63430;53.186;6.598;2022-11-02T08:27:07;11.20;99.90
52979;DHT22;63430;53.186;6.598;2022-11-02T08:29:12;11.30;99.90
52979;DHT22;63430;53.186;6.598;2022-11-02T08:31:15;11.40;99.90
52979;DHT22;63430;53.186;6.598;2022-11-02T08:33:18;11.60;99.90
52979;DHT22;63430;53.186;6.598;2022-11-02T08:35:21;11.60;99.90
52979;DHT22;63430;53.186;6.598;2022-11-02T08:37:23;11.60;99.90
52979;DHT22;63430;53.186;6.598;2022-11-02T08:39:25;11.60;99.90
52979;DHT22;63430;53.186;6.598;2022-11-02T08:41:28;11.60;99.90
52979;DHT22;63430;53.186;6.598;2022-11-02T08:43:30;11.70;99.90
52979;DHT22;63430;53.186;6.598;2022-11-02T08:45:36;11.70;99.90
52979;DHT22;63430;53.186;6.598;2022-11-02T08:47:59;11.80;99.90
52979;DHT22;63430;53.186;6.598;2022-11-02T08:50:02;11.90;99.90
52979;DHT22;63430;53.186;6.598;2022-11-02T08:52:04;12.00;99.90
52979;DHT22;63430;53.186;6.598;2022-11-02T08:54:06;12.00;99.90
52979;DHT22;63430;53.186;6.598;2022-11-02T08:56:09;12.10;99.90
52979;DHT22;63430;53.186;6.598;2022-11-02T08:58:11;12.00;99.90
52979;DHT22;63430;53.186;6.598;2022-11-02T09:00:14;12.10;99.90
52979;DHT22;63430;53.186;6.598;2022-11-02T09:02:20;12.20;99.90
52979;DHT22;63430;53.186;6.598;2022-11-02T09:04:22;12.20;99.90
52979;DHT22;63430;53.186;6.598;2022-11-02T09:06:25;12.30;99.90
52979;DHT22;63430;53.186;6.598;2022-11-02T09:08:28;12.30;99.90
52979;DHT22;63430;53.186;6.598;2022-11-02T09:10:32;12.40;99.90
52979;DHT22;63430;53.186;6.598;2022-11-02T09:12:34;12.40;99.90
52979;DHT22;63430;53.186;6.598;2022-11-02T09:14:37;12.60;99.90
52979;DHT22;63430;53.186;6.598;2022-11-02T09:16:39;12.50;99.90
52979;DHT22;63430;53.186;6.598;2022-11-02T09:18:45;12.60;99.90
52979;DHT22;63430;53.186;6.598;2022-11-02T09:20:47;12.10;99.90
52979;DHT22;63430;53.186;6.598;2022-11-02T09:22:50;12.70;99.90
52979;DHT22;63430;53.186;6.598;2022-11-02T09:24:52;12.70;99.90
52979;DHT22;63430;53.186;6.598;2022-11-02T09:26:54;12.80;99.90
52979;DHT22;63430;53.186;6.598;2022-11-02T09:28:57;12.90;99.90
52979;DHT22;63430;53.186;6.598;2022-11-02T09:30:59;13.00;99.90
52979;DHT22;63430;53.186;6.598;2022-11-02T09:33:02;13.00;99.90
52979;DHT22;63430;53.186;6.598;2022-11-02T09:35:09;13.10;99.90
52979;DHT22;63430;53.186;6.598;2022-11-02T09:37:12;13.00;99.90
52979;DHT22;63430;53.186;6.598;2022-11-02T09:39:14;13.00;99.90
52979;DHT22;63430;53.186;6.598;2022-11-02T09:41:22;13.00;99.90
52979;DHT22;63430;53.186;6.598;2022-11-02T09:43:35;13.00;99.90
52979;DHT22;63430;53.186;6.598;2022-11-02T09:45:50;13.00;99.90
52979;DHT22;63430;53.186;6.598;2022-11-02T09:47:56;13.10;99.90
52979;DHT22;63430;53.186;6.598;2022-11-02T09:50:23;13.20;99.90
52979;DHT22;63430;53.186;6.598;2022-11-02T09:52:32;13.30;99.90
52979;DHT22;63430;53.186;6.598;2022-11-02T09:54:40;13.40;99.90
52979;DHT22;63430;53.186;6.598;2022-11-02T09:56:45;13.40;99.90
52979;DHT22;63430;53.186;6.598;2022-11-02T09:58:53;13.40;99.90
52979;DHT22;63430;53.186;6.598;2022-11-02T10:01:09;13.40;99.90
52979;DHT22;63430;53.186;6.598;2022-11-02T10:03:35;13.30;99.90
52979;DHT22;63430;53.186;6.598;2022-11-02T10:05:50;13.30;99.90
52979;DHT22;63430;53.186;6.598;2022-11-02T10:08:09;13.20;99.90
52979;DHT22;63430;53.186;6.598;2022-11-02T10:10:20;13.20;99.90
52979;DHT22;63430;53.186;6.598;2022-11-02T10:12:29;13.00;99.90
52979;DHT22;63430;53.186;6.598;2022-11-02T10:14:51;13.00;99.90
52979;DHT22;63430;53.186;6.598;2022-11-02T10:16:57;12.70;99.90
52979;DHT22;63430;53.186;6.598;2022-11-02T10:19:03;12.80;99.90
52979;DHT22;63430;53.186;6.598;2022-11-02T10:21:13;12.80;99.90
52979;DHT22;63430;53.186;6.598;2022-11-02T10:23:21;12.70;99.90
52979;DHT22;63430;53.186;6.598;2022-11-02T10:25:26;12.70;99.90
52979;DHT22;63430;53.186;6.598;2022-11-02T10:27:31;12.60;99.90
52979;DHT22;63430;53.186;6.598;2022-11-02T10:29:42;12.70;99.90
52979;DHT22;63430;53.186;6.598;2022-11-02T10:31:46;12.80;99.90
52979;DHT22;63430;53.186;6.598;2022-11-02T10:33:49;13.00;99.90
52979;DHT22;63430;53.186;6.598;2022-11-02T10:36:12;13.30;99.90
52979;DHT22;63430;53.186;6.598;2022-11-02T10:38:29;13.50;99.90
52979;DHT22;63430;53.186;6.598;2022-11-02T10:40:49;13.60;99.90
52979;DHT22;63430;53.186;6.598;2022-11-02T10:43:08;13.80;99.90
52979;DHT22;63430;53.186;6.598;2022-11-02T10:45:25;14.00;99.90
52979;DHT22;63430;53.186;6.598;2022-11-02T10:47:32;14.10;99.90
52979;DHT22;63430;53.186;6.598;2022-11-02T10:52:37;14.10;99.90
52979;DHT22;63430;53.186;6.598;2022-11-02T10:54:40;14.10;99.90
52979;DHT22;63430;53.186;6.598;2022-11-02T10:56:43;14.20;99.90
52979;DHT22;63430;53.186;6.598;2022-11-02T10:58:54;14.30;98.30
52979;DHT22;63430;53.186;6.598;2022-11-02T11:01:05;14.30;98.50
52979;DHT22;63430;53.186;6.598;2022-11-02T11:03:09;14.30;98.90
52979;DHT22;63430;53.186;6.598;2022-11-02T11:05:13;14.30;97.10
52979;DHT22;63430;53.186;6.598;2022-11-02T11:07:19;14.40;96.90
52979;DHT22;63430;53.186;6.598;2022-11-02T11:09:29;14.30;96.30
52979;DHT22;63430;53.186;6.598;2022-11-02T11:11:35;14.30;97.60
52979;DHT22;63430;53.186;6.598;2022-11-02T11:13:39;14.40;98.00
52979;DHT22;63430;53.186;6.598;2022-11-02T11:16:02;14.30;98.20
52979;DHT22;63430;53.186;6.598;2022-11-02T11:18:12;14.20;97.80
52979;DHT22;63430;53.186;6.598;2022-11-02T11:20:37;14.30;97.50
52979;DHT22;63430;53.186;6.598;2022-11-02T11:22:42;14.30;98.10
52979;DHT22;63430;53.186;6.598;2022-11-02T11:24:47;14.30;96.70
52979;DHT22;63430;53.186;6.598;2022-11-02T11:27:03;14.20;95.00
52979;DHT22;63430;53.186;6.598;2022-11-02T11:29:22;14.20;95.10
52979;DHT22;63430;53.186;6.598;2022-11-02T11:31:27;14.10;97.50
52979;DHT22;63430;53.186;6.598;2022-11-02T11:33:39;14.20;96.50
52979;DHT22;63430;53.186;6.598;2022-11-02T11:35:49;14.20;96.10
52979;DHT22;63430;53.186;6.598;2022-11-02T11:37:54;14.20;97.20
52979;DHT22;63430;53.186;6.598;2022-11-02T11:40:02;14.20;97.20
52979;DHT22;63430;53.186;6.598;2022-11-02T11:42:14;14.20;98.40
52979;DHT22;63430;53.186;6.598;2022-11-02T11:44:17;14.30;98.10
52979;DHT22;63430;53.186;6.598;2022-11-02T11:46:20;14.20;97.60
52979;DHT22;63430;53.186;6.598;2022-11-02T11:48:28;14.30;96.40
52979;DHT22;63430;53.186;6.598;2022-11-02T11:50:33;14.40;96.70
52979;DHT22;63430;53.186;6.598;2022-11-02T11:52:35;14.30;96.10
52979;DHT22;63430;53.186;6.598;2022-11-02T11:54:39;14.30;97.70
52979;DHT22;63430;53.186;6.598;2022-11-02T11:56:44;14.30;97.20
52979;DHT22;63430;53.186;6.598;2022-11-02T11:58:50;14.40;97.20
52979;DHT22;63430;53.186;6.598;2022-11-02T12:01:04;14.40;95.10
52979;DHT22;63430;53.186;6.598;2022-11-02T12:03:13;14.50;92.60
52979;DHT22;63430;53.186;6.598;2022-11-02T12:05:17;14.50;87.80
52979;DHT22;63430;53.186;6.598;2022-11-02T12:07:44;14.50;88.50
52979;DHT22;63430;53.186;6.598;2022-11-02T12:10:05;14.40;87.60
52979;DHT22;63430;53.186;6.598;2022-11-02T12:12:20;14.40;89.80
52979;DHT22;63430;53.186;6.598;2022-11-02T12:14:40;14.40;90.00
52979;DHT22;63430;53.186;6.598;2022-11-02T12:16:57;14.40;91.30
52979;DHT22;63430;53.186;6.598;2022-11-02T12:19:15;14.40;92.20
52979;DHT22;63430;53.186;6.598;2022-11-02T12:21:32;14.40;93.10
52979;DHT22;63430;53.186;6.598;2022-11-02T12:24:02;14.40;88.80
52979;DHT22;63430;53.186;6.598;2022-11-02T12:26:25;14.30;90.70
52979;DHT22;63430;53.186;6.598;2022-11-02T12:28:39;14.20;92.00
52979;DHT22;63430;53.186;6.598;2022-11-02T12:30:52;14.20;91.20
52979;DHT22;63430;53.186;6.598;2022-11-02T12:33:12;14.30;91.40
52979;DHT22;63430;53.186;6.598;2022-11-02T12:35:42;14.60;91.70
52979;DHT22;63430;53.186;6.598;2022-11-02T12:37:56;14.40;93.00
52979;DHT22;63430;53.186;6.598;2022-11-02T12:40:13;14.20;92.50
52979;DHT22;63430;53.186;6.598;2022-11-02T12:42:24;14.20;92.10
52979;DHT22;63430;53.186;6.598;2022-11-02T12:44:44;14.20;91.90
52979;DHT22;63430;53.186;6.598;2022-11-02T12:46:55;14.20;91.60
52979;DHT22;63430;53.186;6.598;2022-11-02T12:49:13;14.30;91.00
52979;DHT22;63430;53.186;6.598;2022-11-02T12:51:18;14.30;90.00
52979;DHT22;63430;53.186;6.598;2022-11-02T12:53:35;14.30;90.40
52979;DHT22;63430;53.186;6.598;2022-11-02T12:55:44;14.30;90.40
52979;DHT22;63430;53.186;6.598;2022-11-02T12:57:53;14.30;91.40
52979;DHT22;63430;53.186;6.598;2022-11-02T13:00:05;14.40;90.60
52979;DHT22;63430;53.186;6.598;2022-11-02T13:02:12;14.30;90.90
52979;DHT22;63430;53.186;6.598;2022-11-02T13:04:18;14.30;91.30
52979;DHT22;63430;53.186;6.598;2022-11-02T13:06:33;14.40;91.30
52979;DHT22;63430;53.186;6.598;2022-11-02T13:08:41;14.40;91.90
52979;DHT22;63430;53.186;6.598;2022-11-02T13:10:50;14.40;92.40
52979;DHT22;63430;53.186;6.598;2022-11-02T13:12:58;14.50;93.00
52979;DHT22;63430;53.186;6.598;2022-11-02T13:15:05;14.40;92.50
52979;DHT22;63430;53.186;6.598;2022-11-02T13:17:17;14.30;92.20
52979;DHT22;63430;53.186;6.598;2022-11-02T13:19:22;14.20;92.80
52979;DHT22;63430;53.186;6.598;2022-11-02T13:21:32;14.10;93.70
52979;DHT22;63430;53.186;6.598;2022-11-02T13:23:37;14.20;93.90